Time;durP1;ratioP1;P1;durP2;ratioP2;P2;SDS_P1;SDS_P2;PMS_P1;PMS_P2;Temp;Humidity;BMP_temperature;BMP_pressure;BME280_temperature;BME280_humidity;BME280_pressure;Samples;Min_cycle;Max_cycle;Signal;HPM_P1;HPM_P2
2022/07/06 00:01:07;;;;;;;;;;;17.30;91.50;;;;;;5024214;28;20390;-74
2022/07/06 00:03:33;;;;;;;;;;;17.20;91.10;;;;;;5026549;28;20335;-73
2022/07/06 00:05:58;;;;;;;;;;;17.20;92.30;;;;;;5023384;28;19949;-74
2022/07/06 00:08:24;;;;;;;;;;;17.10;93.10;;;;;;5028875;28;19916;-74
2022/07/06 00:10:49;;;;;;;;;;;17.10;93.00;;;;;;5032146;28;19931;-75
2022/07/06 00:13:41;;;;;;;;;;;17.10;95.20;;;;;;5034031;28;20288;-74
2022/07/06 00:16:06;;;;;;;;;;;17.00;95.20;;;;;;5025805;28;19909;-74
2022/07/06 00:18:31;;;;;;;;;;;16.90;94.50;;;;;;5030287;28;19916;-74
2022/07/06 00:20:57;;;;;;;;;;;16.90;94.80;;;;;;5026869;28;19920;-74
2022/07/06 00:23:22;;;;;;;;;;;16.80;96.00;;;;;;5028816;28;19963;-74
2022/07/06 00:25:48;;;;;;;;;;;16.70;96.40;;;;;;5030854;28;19905;-75
2022/07/06 00:28:13;;;;;;;;;;;16.60;96.60;;;;;;5023819;28;19913;-75
2022/07/06 00:30:39;;;;;;;;;;;16.60;96.60;;;;;;5031085;28;19932;-74
2022/07/06 00:33:04;;;;;;;;;;;16.50;96.80;;;;;;5027890;28;19963;-74
2022/07/06 00:35:30;;;;;;;;;;;16.40;95.40;;;;;;5030210;28;20058;-74
2022/07/06 00:37:55;;;;;;;;;;;16.40;96.90;;;;;;5029121;28;19913;-74
2022/07/06 00:40:21;;;;;;;;;;;16.30;98.40;;;;;;5028225;28;19913;-74
2022/07/06 00:42:47;;;;;;;;;;;16.30;99.30;;;;;;5030379;28;19916;-73
2022/07/06 00:45:14;;;;;;;;;;;16.20;97.90;;;;;;5023867;28;20276;-74
2022/07/06 00:47:39;;;;;;;;;;;16.10;97.10;;;;;;5027689;28;19913;-74
2022/07/06 00:50:14;;;;;;;;;;;16.10;99.90;;;;;;5028994;28;19916;-74
2022/07/06 00:52:40;;;;;;;;;;;16.10;99.80;;;;;;5028123;28;19909;-72
2022/07/06 00:55:06;;;;;;;;;;;16.00;98.30;;;;;;5041226;28;19939;-73
2022/07/06 00:57:31;;;;;;;;;;;16.00;99.30;;;;;;5031050;28;19944;-74
2022/07/06 00:59:57;;;;;;;;;;;15.90;98.10;;;;;;5025305;28;19916;-73
2022/07/06 01:02:23;;;;;;;;;;;15.90;99.90;;;;;;5027226;28;19928;-73
2022/07/06 01:04:49;;;;;;;;;;;15.90;99.90;;;;;;5028529;28;19936;-73
2022/07/06 01:07:14;;;;;;;;;;;16.00;99.90;;;;;;5037067;28;20382;-73
2022/07/06 01:09:40;;;;;;;;;;;16.00;99.90;;;;;;5028125;28;19909;-74
2022/07/06 01:12:05;;;;;;;;;;;16.00;99.90;;;;;;5026320;28;19913;-74
2022/07/06 01:14:31;;;;;;;;;;;16.00;99.90;;;;;;5026101;28;19920;-73
2022/07/06 01:16:57;;;;;;;;;;;16.00;99.90;;;;;;5031819;28;19909;-73
2022/07/06 01:19:23;;;;;;;;;;;16.00;99.90;;;;;;5026041;28;19915;-74
2022/07/06 01:21:48;;;;;;;;;;;16.00;99.70;;;;;;5038023;28;19913;-72
2022/07/06 01:24:13;;;;;;;;;;;16.00;99.60;;;;;;5027438;28;19941;-74
2022/07/06 01:26:39;;;;;;;;;;;16.00;99.90;;;;;;5029673;28;20303;-74
2022/07/06 01:29:04;;;;;;;;;;;16.00;99.50;;;;;;5024500;28;19964;-73
2022/07/06 01:31:30;;;;;;;;;;;16.10;99.90;;;;;;5033550;28;19912;-73
2022/07/06 01:33:56;;;;;;;;;;;16.10;99.50;;;;;;5041592;28;19913;-73
2022/07/06 01:36:22;;;;;;;;;;;16.10;99.90;;;;;;5029642;28;20030;-73
2022/07/06 01:38:54;;;;;;;;;;;16.20;99.90;;;;;;5034738;28;19909;-73
2022/07/06 01:41:20;;;;;;;;;;;16.20;99.90;;;;;;5030180;28;20363;-74
2022/07/06 01:43:46;;;;;;;;;;;16.10;99.30;;;;;;5035821;28;19917;-73
2022/07/06 01:46:11;;;;;;;;;;;16.10;99.90;;;;;;5036757;28;19974;-74
2022/07/06 01:48:37;;;;;;;;;;;16.10;99.90;;;;;;5040140;28;20474;-73
2022/07/06 01:51:02;;;;;;;;;;;16.20;99.90;;;;;;5034114;28;19909;-73
2022/07/06 01:53:28;;;;;;;;;;;16.20;99.40;;;;;;5034249;28;19916;-73
2022/07/06 01:55:53;;;;;;;;;;;16.30;97.10;;;;;;5054146;28;19913;-73
2022/07/06 01:58:19;;;;;;;;;;;16.40;97.50;;;;;;5053539;28;20257;-73
2022/07/06 02:00:44;;;;;;;;;;;16.40;99.10;;;;;;5052109;28;19923;-74
2022/07/06 02:03:09;;;;;;;;;;;16.50;97.20;;;;;;5054892;28;19908;-73
2022/07/06 02:05:35;;;;;;;;;;;16.70;95.90;;;;;;5054665;28;19913;-74
2022/07/06 02:08:00;;;;;;;;;;;16.80;94.60;;;;;;5054168;28;19990;-74
2022/07/06 02:10:26;;;;;;;;;;;16.80;93.80;;;;;;5051499;28;19927;-74
2022/07/06 02:12:51;;;;;;;;;;;16.90;93.20;;;;;;5054919;28;19919;-75
2022/07/06 02:15:17;;;;;;;;;;;17.00;92.90;;;;;;5052954;28;19909;-74
2022/07/06 02:17:42;;;;;;;;;;;17.10;92.30;;;;;;5054338;28;19931;-74
2022/07/06 02:20:08;;;;;;;;;;;17.10;91.40;;;;;;5053534;28;20267;-73
2022/07/06 02:22:33;;;;;;;;;;;17.20;91.50;;;;;;5053871;28;19936;-74
2022/07/06 02:24:59;;;;;;;;;;;17.10;90.90;;;;;;5054824;28;19917;-74
2022/07/06 02:27:25;;;;;;;;;;;17.10;91.40;;;;;;5053504;28;19908;-74
2022/07/06 02:29:50;;;;;;;;;;;17.00;92.80;;;;;;5052559;28;19983;-73
2022/07/06 02:32:15;;;;;;;;;;;17.00;94.30;;;;;;5054510;28;19908;-73
2022/07/06 02:34:41;;;;;;;;;;;17.10;99.30;;;;;;5054158;28;19919;-74
2022/07/06 02:37:06;;;;;;;;;;;17.00;99.90;;;;;;5055610;28;19916;-74
2022/07/06 02:39:32;;;;;;;;;;;17.00;99.90;;;;;;5048323;28;19935;-74
2022/07/06 02:41:57;;;;;;;;;;;17.00;99.90;;;;;;5051289;28;20375;-74
2022/07/06 02:44:22;;;;;;;;;;;16.90;99.90;;;;;;5048010;28;20574;-74
2022/07/06 02:46:48;;;;;;;;;;;16.80;99.90;;;;;;5050030;28;19959;-74
2022/07/06 02:49:13;;;;;;;;;;;16.70;99.90;;;;;;5050823;28;19996;-74
2022/07/06 02:51:39;;;;;;;;;;;16.60;99.90;;;;;;5048813;28;19964;-74
2022/07/06 02:54:04;;;;;;;;;;;16.50;99.90;;;;;;5050064;28;19913;-74
2022/07/06 02:56:29;;;;;;;;;;;16.60;99.90;;;;;;5054336;28;20033;-75
2022/07/06 02:58:55;;;;;;;;;;;16.70;99.90;;;;;;5050557;28;19928;-74
2022/07/06 03:01:20;;;;;;;;;;;16.70;99.90;;;;;;5048030;28;20667;-74
2022/07/06 03:03:46;;;;;;;;;;;16.70;99.90;;;;;;5050412;28;20394;-75
2022/07/06 03:06:11;;;;;;;;;;;16.60;99.90;;;;;;5049686;28;19963;-74
2022/07/06 03:08:37;;;;;;;;;;;16.60;99.90;;;;;;5053655;28;19951;-74
2022/07/06 03:11:02;;;;;;;;;;;16.60;99.90;;;;;;5049169;28;19909;-74
2022/07/06 03:13:28;;;;;;;;;;;16.60;99.90;;;;;;5050358;28;19913;-74
2022/07/06 03:15:54;;;;;;;;;;;16.50;99.90;;;;;;5050557;28;19916;-74
2022/07/06 03:18:19;;;;;;;;;;;16.30;99.90;;;;;;5047114;28;20421;-74
2022/07/06 03:20:45;;;;;;;;;;;16.30;99.90;;;;;;5050222;28;19958;-74
2022/07/06 03:23:10;;;;;;;;;;;16.40;99.90;;;;;;5049886;28;20003;-74
2022/07/06 03:25:35;;;;;;;;;;;16.40;99.90;;;;;;5050149;28;19908;-75
2022/07/06 03:28:01;;;;;;;;;;;16.40;99.90;;;;;;5054966;28;20375;-74
2022/07/06 03:30:26;;;;;;;;;;;16.40;99.90;;;;;;5048440;28;19948;-74
2022/07/06 03:32:52;;;;;;;;;;;16.50;99.90;;;;;;5049614;28;19920;-74
2022/07/06 03:35:17;;;;;;;;;;;16.50;99.90;;;;;;5049675;28;19909;-73
2022/07/06 03:37:43;;;;;;;;;;;16.40;99.90;;;;;;5050748;28;19979;-74
2022/07/06 03:40:09;;;;;;;;;;;16.40;99.90;;;;;;5060673;28;19913;-74
2022/07/06 03:42:35;;;;;;;;;;;16.20;99.90;;;;;;5049168;28;19909;-74
2022/07/06 03:45:00;;;;;;;;;;;16.20;99.90;;;;;;5050406;28;19909;-73
2022/07/06 03:47:26;;;;;;;;;;;16.20;99.90;;;;;;5037157;28;19916;-75
2022/07/06 03:49:51;;;;;;;;;;;16.20;99.90;;;;;;5051912;28;20367;-73
2022/07/06 03:52:16;;;;;;;;;;;16.20;99.90;;;;;;5047550;28;19909;-74
2022/07/06 03:54:42;;;;;;;;;;;16.30;99.90;;;;;;5043675;28;19975;-74
2022/07/06 03:57:08;;;;;;;;;;;16.30;99.90;;;;;;5047757;28;19923;-74
2022/07/06 03:59:33;;;;;;;;;;;16.40;99.90;;;;;;5048437;28;19909;-73
2022/07/06 04:01:58;;;;;;;;;;;16.30;99.90;;;;;;5048199;28;20335;-73
2022/07/06 04:04:24;;;;;;;;;;;16.30;99.90;;;;;;5050031;28;19912;-73
2022/07/06 04:06:49;;;;;;;;;;;16.40;99.90;;;;;;5050085;28;20471;-73
2022/07/06 04:09:14;;;;;;;;;;;16.50;99.90;;;;;;5043246;28;19916;-74
2022/07/06 04:11:40;;;;;;;;;;;16.50;99.90;;;;;;5042065;28;19967;-74
2022/07/06 04:14:05;;;;;;;;;;;16.50;99.90;;;;;;5044279;28;19944;-74
2022/07/06 04:16:31;;;;;;;;;;;16.40;99.90;;;;;;5049632;28;19971;-73
2022/07/06 04:18:56;;;;;;;;;;;16.30;99.90;;;;;;5049838;28;20003;-73
2022/07/06 04:21:22;;;;;;;;;;;16.30;99.90;;;;;;5047947;28;19918;-73
2022/07/06 04:23:47;;;;;;;;;;;16.30;99.90;;;;;;5047543;28;19908;-73
2022/07/06 04:26:12;;;;;;;;;;;16.40;99.90;;;;;;5047604;28;19909;-74
2022/07/06 04:28:38;;;;;;;;;;;16.30;99.90;;;;;;5046497;28;19932;-75
2022/07/06 04:31:03;;;;;;;;;;;16.30;99.90;;;;;;5049589;28;20330;-73
2022/07/06 04:33:29;;;;;;;;;;;16.20;99.90;;;;;;5043201;28;19912;-72
2022/07/06 04:35:54;;;;;;;;;;;16.10;99.90;;;;;;5043469;28;19963;-71
2022/07/06 04:38:19;;;;;;;;;;;16.00;99.90;;;;;;5049664;28;19951;-75
2022/07/06 04:40:46;;;;;;;;;;;16.10;99.90;;;;;;5045979;28;21390;-74
2022/07/06 04:43:12;;;;;;;;;;;16.10;99.90;;;;;;5050624;28;19912;-74
2022/07/06 04:45:37;;;;;;;;;;;16.10;99.90;;;;;;5056248;28;19912;-74
2022/07/06 04:48:03;;;;;;;;;;;16.20;99.90;;;;;;5049052;28;19936;-74
2022/07/06 04:50:28;;;;;;;;;;;16.10;99.90;;;;;;5048778;28;19909;-74
2022/07/06 04:52:54;;;;;;;;;;;16.10;99.90;;;;;;5048166;28;19909;-73
2022/07/06 04:55:19;;;;;;;;;;;16.20;99.90;;;;;;5046107;28;19935;-74
2022/07/06 04:57:45;;;;;;;;;;;16.20;99.90;;;;;;5047874;28;20395;-74
2022/07/06 05:00:10;;;;;;;;;;;16.20;99.90;;;;;;5047543;28;19909;-74
2022/07/06 05:02:36;;;;;;;;;;;16.20;99.90;;;;;;5054614;28;19995;-74
2022/07/06 05:05:01;;;;;;;;;;;16.30;99.90;;;;;;5048355;28;19919;-74
2022/07/06 05:07:29;;;;;;;;;;;16.30;99.90;;;;;;5051154;28;19912;-72
2022/07/06 05:09:57;;;;;;;;;;;16.30;99.90;;;;;;5055162;28;19908;-78
2022/07/06 05:12:23;;;;;;;;;;;16.40;99.90;;;;;;5052439;28;20267;-75
2022/07/06 05:14:48;;;;;;;;;;;16.50;99.90;;;;;;5055348;28;20500;-74
2022/07/06 05:17:14;;;;;;;;;;;16.40;99.90;;;;;;5051951;28;19908;-74
2022/07/06 05:19:39;;;;;;;;;;;16.30;99.90;;;;;;5048401;28;20350;-76
2022/07/06 05:22:04;;;;;;;;;;;16.30;99.90;;;;;;5048260;28;19913;-77
2022/07/06 05:24:30;;;;;;;;;;;16.30;99.90;;;;;;5051995;28;19916;-77
2022/07/06 05:26:55;;;;;;;;;;;16.30;99.90;;;;;;5048031;28;19909;-77
2022/07/06 05:29:21;;;;;;;;;;;16.40;99.90;;;;;;5048069;28;20340;-80
2022/07/06 05:31:46;;;;;;;;;;;16.40;99.90;;;;;;5048148;28;19970;-78
2022/07/06 05:34:11;;;;;;;;;;;16.30;99.90;;;;;;5045768;28;19916;-79
2022/07/06 05:36:37;;;;;;;;;;;16.40;99.90;;;;;;5049025;28;19939;-78
2022/07/06 05:39:02;;;;;;;;;;;16.40;99.90;;;;;;5049019;28;19959;-78
2022/07/06 05:41:28;;;;;;;;;;;16.40;99.90;;;;;;5048674;28;19912;-79
2022/07/06 05:43:53;;;;;;;;;;;16.40;98.70;;;;;;5047195;28;19955;-78
2022/07/06 05:46:18;;;;;;;;;;;16.40;98.50;;;;;;5048724;28;19955;-79
2022/07/06 05:51:28;;;;;;;;;;;16.40;98.50;;;;;;5048578;28;19912;-79
2022/07/06 05:53:53;;;;;;;;;;;16.50;99.40;;;;;;5046835;28;20627;-80
2022/07/06 05:56:19;;;;;;;;;;;16.50;98.40;;;;;;5048653;28;19908;-78
2022/07/06 05:58:44;;;;;;;;;;;16.50;98.90;;;;;;5048817;28;19904;-78
2022/07/06 06:01:10;;;;;;;;;;;16.60;99.30;;;;;;5048026;28;20447;-79
2022/07/06 06:03:35;;;;;;;;;;;16.50;98.80;;;;;;5048329;28;19912;-81
2022/07/06 06:06:00;;;;;;;;;;;16.60;98.30;;;;;;5045124;28;19908;-78
2022/07/06 06:08:26;;;;;;;;;;;16.60;99.10;;;;;;5042457;28;19908;-80
2022/07/06 06:10:52;;;;;;;;;;;16.60;98.50;;;;;;5048497;28;19909;-78
2022/07/06 06:13:17;;;;;;;;;;;16.60;99.00;;;;;;5051637;28;20043;-78
2022/07/06 06:15:42;;;;;;;;;;;16.70;98.70;;;;;;5052000;28;19908;-78
2022/07/06 06:18:08;;;;;;;;;;;16.80;98.60;;;;;;5052662;28;20550;-79
2022/07/06 06:20:33;;;;;;;;;;;16.80;98.90;;;;;;5052162;28;19912;-78
2022/07/06 06:22:59;;;;;;;;;;;16.90;99.20;;;;;;5052525;28;19975;-78
2022/07/06 06:25:35;;;;;;;;;;;17.10;97.60;;;;;;5051528;28;20375;-79
2022/07/06 06:28:02;;;;;;;;;;;17.20;97.20;;;;;;5052323;28;19995;-78
2022/07/06 06:30:28;;;;;;;;;;;17.10;97.50;;;;;;5052115;28;19959;-78
2022/07/06 06:33:06;;;;;;;;;;;17.10;98.20;;;;;;5051322;28;19909;-78
2022/07/06 06:35:32;;;;;;;;;;;17.00;97.20;;;;;;5051785;28;19909;-78
2022/07/06 06:37:57;;;;;;;;;;;16.90;97.30;;;;;;5053758;28;20007;-78
2022/07/06 06:40:23;;;;;;;;;;;16.80;97.90;;;;;;5050108;28;20003;-79
2022/07/06 06:42:48;;;;;;;;;;;16.90;98.40;;;;;;5051579;28;20017;-78
2022/07/06 06:45:13;;;;;;;;;;;16.90;97.70;;;;;;5051035;28;20371;-78
2022/07/06 06:47:39;;;;;;;;;;;16.80;96.90;;;;;;5051696;28;19984;-78
2022/07/06 06:50:04;;;;;;;;;;;16.90;97.80;;;;;;5049655;28;19916;-77
2022/07/06 06:52:30;;;;;;;;;;;17.00;96.70;;;;;;5050902;28;19912;-78
2022/07/06 06:54:55;;;;;;;;;;;17.20;97.80;;;;;;5051103;28;20314;-78
2022/07/06 06:57:21;;;;;;;;;;;17.50;95.50;;;;;;5051183;28;19908;-78
2022/07/06 06:59:46;;;;;;;;;;;17.60;96.30;;;;;;5054369;28;19936;-78
2022/07/06 07:02:11;;;;;;;;;;;17.70;94.50;;;;;;5054444;28;20019;-78
2022/07/06 07:04:37;;;;;;;;;;;17.70;93.90;;;;;;5051112;28;20397;-78
2022/07/06 07:07:02;;;;;;;;;;;17.80;93.10;;;;;;5051008;28;19913;-79
2022/07/06 07:09:28;;;;;;;;;;;17.90;91.30;;;;;;5051279;28;19904;-83
2022/07/06 07:11:54;;;;;;;;;;;17.90;90.60;;;;;;5053260;28;19915;-78
2022/07/06 07:14:20;;;;;;;;;;;17.90;89.00;;;;;;5051163;28;19905;-78
2022/07/06 07:16:45;;;;;;;;;;;17.90;87.50;;;;;;5051314;28;19923;-78
2022/07/06 07:19:11;;;;;;;;;;;17.70;84.20;;;;;;5050461;28;20250;-79
2022/07/06 07:21:36;;;;;;;;;;;17.70;86.40;;;;;;5049574;28;19921;-79
2022/07/06 07:24:01;;;;;;;;;;;17.90;83.40;;;;;;5050169;28;19913;-79
2022/07/06 07:26:27;;;;;;;;;;;17.90;82.70;;;;;;5050562;28;19905;-77
2022/07/06 07:28:52;;;;;;;;;;;17.90;83.30;;;;;;5050572;28;19912;-78
2022/07/06 07:31:18;;;;;;;;;;;17.70;82.40;;;;;;5052663;28;20286;-80
2022/07/06 07:33:43;;;;;;;;;;;17.90;84.80;;;;;;5050924;28;19911;-77
2022/07/06 07:36:08;;;;;;;;;;;18.10;84.30;;;;;;5050667;28;20424;-81
2022/07/06 07:38:34;;;;;;;;;;;18.40;82.10;;;;;;5050472;28;19904;-80
2022/07/06 07:40:59;;;;;;;;;;;18.50;80.80;;;;;;5049732;28;19908;-79
2022/07/06 07:43:25;;;;;;;;;;;18.70;82.20;;;;;;5058462;28;19921;-79
2022/07/06 07:45:50;;;;;;;;;;;18.80;80.10;;;;;;5050184;28;19909;-78
2022/07/06 07:48:15;;;;;;;;;;;18.80;80.40;;;;;;5050147;28;20283;-77
2022/07/06 07:50:41;;;;;;;;;;;18.80;79.80;;;;;;5050306;28;19905;-78
2022/07/06 07:53:07;;;;;;;;;;;18.60;81.00;;;;;;5048293;28;20268;-78
2022/07/06 07:55:33;;;;;;;;;;;18.40;82.20;;;;;;5049379;28;20019;-79
2022/07/06 07:57:58;;;;;;;;;;;18.60;84.60;;;;;;5050166;28;20275;-79
2022/07/06 08:00:24;;;;;;;;;;;18.40;81.70;;;;;;5049883;28;19916;-79
2022/07/06 08:02:49;;;;;;;;;;;18.30;82.90;;;;;;5048418;28;20046;-80
2022/07/06 08:05:15;;;;;;;;;;;18.20;83.00;;;;;;5049943;28;20306;-77
2022/07/06 08:07:44;;;;;;;;;;;18.40;83.80;;;;;;5050011;28;19908;-79
2022/07/06 08:10:10;;;;;;;;;;;18.90;80.80;;;;;;5049716;28;20552;-77
2022/07/06 08:12:35;;;;;;;;;;;19.30;78.70;;;;;;5049552;28;19940;-79
2022/07/06 08:15:01;;;;;;;;;;;19.50;78.80;;;;;;5048664;28;20201;-78
2022/07/06 08:17:26;;;;;;;;;;;19.60;77.80;;;;;;5049598;28;19904;-78
2022/07/06 08:19:51;;;;;;;;;;;19.60;77.70;;;;;;5052517;28;19908;-79
2022/07/06 08:22:17;;;;;;;;;;;19.30;75.70;;;;;;5049642;28;19908;-79
2022/07/06 08:24:42;;;;;;;;;;;19.00;76.60;;;;;;5049516;28;19905;-80
2022/07/06 08:27:08;;;;;;;;;;;18.90;73.30;;;;;;5056398;28;19983;-80
2022/07/06 08:29:33;;;;;;;;;;;18.90;70.70;;;;;;5048570;28;19908;-79
2022/07/06 08:31:59;;;;;;;;;;;19.10;72.10;;;;;;5049620;28;20000;-79
2022/07/06 08:34:24;;;;;;;;;;;19.20;71.10;;;;;;5049391;28;19928;-81
2022/07/06 08:36:50;;;;;;;;;;;19.20;71.20;;;;;;5047400;28;19912;-79
2022/07/06 08:39:15;;;;;;;;;;;18.80;71.70;;;;;;5049265;28;20327;-78
2022/07/06 08:41:41;;;;;;;;;;;18.50;72.50;;;;;;5049256;28;19916;-78
2022/07/06 08:44:07;;;;;;;;;;;18.50;74.20;;;;;;5049438;28;19935;-81
2022/07/06 08:46:34;;;;;;;;;;;18.50;73.60;;;;;;5048628;28;19916;-80
2022/07/06 08:49:00;;;;;;;;;;;18.60;72.70;;;;;;5053311;28;19923;-78
2022/07/06 08:51:27;;;;;;;;;;;18.70;72.60;;;;;;5049102;28;19940;-82
2022/07/06 08:53:53;;;;;;;;;;;18.70;71.90;;;;;;5048670;28;19905;-77
2022/07/06 08:56:18;;;;;;;;;;;18.90;72.20;;;;;;5049263;28;19958;-78
2022/07/06 08:58:44;;;;;;;;;;;19.40;69.70;;;;;;5033314;28;19909;-79
2022/07/06 09:01:10;;;;;;;;;;;19.60;68.80;;;;;;5033075;28;19916;-78
2022/07/06 09:03:36;;;;;;;;;;;19.70;69.30;;;;;;5042296;28;19912;-80
2022/07/06 09:06:02;;;;;;;;;;;19.90;68.90;;;;;;5047082;28;19908;-80
2022/07/06 09:08:30;;;;;;;;;;;19.90;65.90;;;;;;5028082;28;19916;-83
2022/07/06 09:10:55;;;;;;;;;;;19.80;64.40;;;;;;5049066;28;19947;-80
2022/07/06 09:13:21;;;;;;;;;;;19.40;64.50;;;;;;5048618;28;19909;-81
2022/07/06 09:15:46;;;;;;;;;;;19.60;64.20;;;;;;5048893;28;19905;-79
2022/07/06 09:18:12;;;;;;;;;;;20.00;63.60;;;;;;5041019;28;20292;-77
2022/07/06 09:20:37;;;;;;;;;;;20.10;60.40;;;;;;5048771;28;19916;-80
2022/07/06 09:23:04;;;;;;;;;;;20.30;59.70;;;;;;5048642;28;19928;-78
2022/07/06 09:25:30;;;;;;;;;;;20.00;59.50;;;;;;5048595;28;19984;-82
2022/07/06 09:27:57;;;;;;;;;;;20.10;61.60;;;;;;5048881;28;19980;-78
2022/07/06 09:30:24;;;;;;;;;;;19.90;61.40;;;;;;5035597;28;20390;-80
2022/07/06 09:32:50;;;;;;;;;;;19.70;61.00;;;;;;5048790;28;19904;-79
2022/07/06 09:35:26;;;;;;;;;;;19.50;61.80;;;;;;5041635;28;19909;-77
2022/07/06 09:38:05;;;;;;;;;;;19.40;63.10;;;;;;5028186;28;19991;-78
2022/07/06 09:40:31;;;;;;;;;;;19.70;63.00;;;;;;5031218;28;19913;-78
2022/07/06 09:43:10;;;;;;;;;;;20.00;61.60;;;;;;5046196;28;19998;-78
2022/07/06 09:45:36;;;;;;;;;;;20.30;62.30;;;;;;5048614;28;20012;-78
2022/07/06 09:48:23;;;;;;;;;;;20.40;60.40;;;;;;5050672;28;20565;-79
2022/07/06 09:50:53;;;;;;;;;;;20.60;61.10;;;;;;5037472;28;20613;-81
2022/07/06 09:53:20;;;;;;;;;;;20.40;60.30;;;;;;5036649;28;19909;-79
2022/07/06 09:55:47;;;;;;;;;;;20.10;62.30;;;;;;5050315;28;20003;-78
2022/07/06 09:58:13;;;;;;;;;;;19.80;63.60;;;;;;5054603;28;19913;-79
2022/07/06 10:00:38;;;;;;;;;;;19.60;64.70;;;;;;5056050;28;19978;-80
2022/07/06 10:03:04;;;;;;;;;;;19.50;64.80;;;;;;5061477;28;20355;-80
2022/07/06 10:05:30;;;;;;;;;;;19.40;65.60;;;;;;5051867;28;19904;-78
2022/07/06 10:07:57;;;;;;;;;;;19.30;66.70;;;;;;5052449;28;19912;-79
2022/07/06 10:10:27;;;;;;;;;;;19.40;67.80;;;;;;5052631;28;19915;-80
2022/07/06 10:12:54;;;;;;;;;;;19.50;67.50;;;;;;5052100;28;19911;-80
2022/07/06 10:15:21;;;;;;;;;;;19.50;68.10;;;;;;5051875;28;19909;-79
2022/07/06 10:17:47;;;;;;;;;;;19.50;68.40;;;;;;5052342;28;20218;-79
2022/07/06 10:20:13;;;;;;;;;;;19.70;70.00;;;;;;5050209;28;19944;-79
2022/07/06 10:22:39;;;;;;;;;;;19.90;67.40;;;;;;5050894;28;19984;-79
2022/07/06 10:25:04;;;;;;;;;;;20.00;67.10;;;;;;5055151;28;19904;-78
2022/07/06 10:27:31;;;;;;;;;;;20.10;66.90;;;;;;5051623;28;20023;-78
2022/07/06 10:29:56;;;;;;;;;;;19.90;65.20;;;;;;5051875;28;19905;-79
2022/07/06 10:32:22;;;;;;;;;;;20.30;65.80;;;;;;5051535;28;19904;-80
2022/07/06 10:34:48;;;;;;;;;;;20.50;64.20;;;;;;5050788;28;19917;-79
2022/07/06 10:37:22;;;;;;;;;;;20.70;62.20;;;;;;5051416;28;20348;-79
2022/07/06 10:42:41;;;;;;;;;;;21.50;61.50;;;;;;5037993;28;19967;-83
2022/07/06 10:45:07;;;;;;;;;;;21.40;59.30;;;;;;5050888;28;19909;-79
2022/07/06 10:47:34;;;;;;;;;;;21.40;59.20;;;;;;5050870;28;19912;-79
2022/07/06 10:50:00;;;;;;;;;;;22.00;59.00;;;;;;5051505;28;19913;-82
2022/07/06 10:52:44;;;;;;;;;;;21.80;57.50;;;;;;5051229;28;19912;-82
2022/07/06 10:55:27;;;;;;;;;;;21.60;58.30;;;;;;5056572;28;19922;-79
2022/07/06 10:57:52;;;;;;;;;;;21.50;58.10;;;;;;5051109;28;19908;-80
2022/07/06 11:00:18;;;;;;;;;;;21.80;59.00;;;;;;5050506;28;20320;-81
2022/07/06 11:02:43;;;;;;;;;;;21.90;57.40;;;;;;5050908;28;19912;-79
2022/07/06 11:05:10;;;;;;;;;;;21.90;58.10;;;;;;5049492;28;19999;-79
2022/07/06 11:07:48;;;;;;;;;;;21.90;57.30;;;;;;5049597;28;19909;-83
2022/07/06 11:10:13;;;;;;;;;;;21.80;57.90;;;;;;5049793;28;19912;-82
2022/07/06 11:12:44;;;;;;;;;;;21.40;57.90;;;;;;5050657;28;20276;-80
2022/07/06 11:15:09;;;;;;;;;;;21.20;60.80;;;;;;5047633;28;20455;-79
2022/07/06 11:17:35;;;;;;;;;;;20.70;59.30;;;;;;5049518;28;19992;-83
2022/07/06 11:20:11;;;;;;;;;;;20.40;60.80;;;;;;5032709;28;19947;-81
2022/07/06 11:22:37;;;;;;;;;;;20.30;61.50;;;;;;5050589;28;19915;-85
2022/07/06 11:25:03;;;;;;;;;;;20.20;61.70;;;;;;5048603;28;19912;-80
2022/07/06 11:27:28;;;;;;;;;;;20.00;62.80;;;;;;5049678;28;19952;-78
2022/07/06 11:29:54;;;;;;;;;;;20.20;63.70;;;;;;5050817;28;19984;-80
2022/07/06 11:32:23;;;;;;;;;;;20.30;61.60;;;;;;5050610;28;19904;-79
2022/07/06 11:34:49;;;;;;;;;;;20.40;62.70;;;;;;5050466;28;19958;-83
2022/07/06 11:37:14;;;;;;;;;;;20.50;62.20;;;;;;5050554;28;19948;-82
2022/07/06 11:39:41;;;;;;;;;;;20.40;60.60;;;;;;5050359;28;20015;-80
2022/07/06 11:42:07;;;;;;;;;;;20.60;62.00;;;;;;5050479;28;19908;-79
2022/07/06 11:44:33;;;;;;;;;;;21.00;61.80;;;;;;5049333;28;19909;-79
2022/07/06 11:47:01;;;;;;;;;;;21.60;61.80;;;;;;5042011;28;19918;-78
2022/07/06 11:49:27;;;;;;;;;;;21.80;59.30;;;;;;5048058;28;19916;-83
2022/07/06 11:51:52;;;;;;;;;;;22.40;58.40;;;;;;5049728;28;19905;-81
2022/07/06 11:54:19;;;;;;;;;;;23.00;56.00;;;;;;5050106;28;19912;-80
2022/07/06 11:56:51;;;;;;;;;;;23.00;55.60;;;;;;5048288;28;19912;-80
2022/07/06 11:59:21;;;;;;;;;;;23.70;56.80;;;;;;5045473;28;20008;-77
2022/07/06 12:01:46;;;;;;;;;;;23.80;53.80;;;;;;5042893;28;19925;-76
2022/07/06 12:04:12;;;;;;;;;;;22.90;56.00;;;;;;5047738;28;19928;-74
2022/07/06 12:06:37;;;;;;;;;;;22.40;55.50;;;;;;5045374;28;20272;-77
2022/07/06 12:09:04;;;;;;;;;;;21.80;57.30;;;;;;5046537;28;19915;-75
2022/07/06 12:11:34;;;;;;;;;;;21.90;57.80;;;;;;5044656;28;19916;-76
2022/07/06 12:14:00;;;;;;;;;;;21.70;57.70;;;;;;5047488;28;19924;-75
2022/07/06 12:16:44;;;;;;;;;;;21.60;58.40;;;;;;5050149;28;20352;-75
2022/07/06 12:19:11;;;;;;;;;;;21.80;58.10;;;;;;5045430;28;20002;-76
2022/07/06 12:21:42;;;;;;;;;;;22.40;56.60;;;;;;5047482;28;19913;-85
2022/07/06 12:24:08;;;;;;;;;;;23.40;55.30;;;;;;5050311;28;20272;-75
2022/07/06 12:26:38;;;;;;;;;;;23.60;52.90;;;;;;5046343;28;19915;-79
2022/07/06 12:29:09;;;;;;;;;;;23.80;51.40;;;;;;5044867;28;19931;-76
2022/07/06 12:31:55;;;;;;;;;;;24.00;52.50;;;;;;5044162;28;20003;-83
2022/07/06 12:34:22;;;;;;;;;;;23.80;54.70;;;;;;5045136;28;19931;-83
2022/07/06 12:36:48;;;;;;;;;;;24.40;52.60;;;;;;5042932;28;19917;-79
2022/07/06 12:39:14;;;;;;;;;;;24.50;51.10;;;;;;5044979;28;19913;-76
2022/07/06 12:41:44;;;;;;;;;;;24.20;51.40;;;;;;5042162;28;20368;-76
2022/07/06 12:44:09;;;;;;;;;;;24.10;52.10;;;;;;5042481;28;19909;-76
2022/07/06 12:46:39;;;;;;;;;;;23.60;53.50;;;;;;5046282;28;19909;-76
2022/07/06 12:49:12;;;;;;;;;;;23.60;53.30;;;;;;5043991;28;19980;-75
2022/07/06 12:51:56;;;;;;;;;;;23.50;51.90;;;;;;5045314;28;19917;-77
2022/07/06 12:54:22;;;;;;;;;;;23.20;51.90;;;;;;5041444;28;21591;-78
2022/07/06 12:56:57;;;;;;;;;;;23.40;53.60;;;;;;5036244;28;19916;-77
2022/07/06 12:59:23;;;;;;;;;;;23.60;53.50;;;;;;5026270;28;20006;-78
2022/07/06 13:01:50;;;;;;;;;;;23.80;54.70;;;;;;5029108;28;19925;-76
2022/07/06 13:04:16;;;;;;;;;;;23.70;52.10;;;;;;5032006;28;19999;-79
2022/07/06 13:06:41;;;;;;;;;;;23.80;52.60;;;;;;5025836;28;20000;-75
2022/07/06 13:09:07;;;;;;;;;;;23.60;52.60;;;;;;5028738;28;19915;-76
2022/07/06 13:11:33;;;;;;;;;;;23.50;52.00;;;;;;5027252;28;20383;-74
2022/07/06 13:13:59;;;;;;;;;;;23.80;51.80;;;;;;5033135;28;19921;-75
2022/07/06 13:16:30;;;;;;;;;;;24.30;51.10;;;;;;5029583;28;19920;-75
2022/07/06 13:18:56;;;;;;;;;;;24.40;49.80;;;;;;5024833;28;19952;-75
2022/07/06 13:21:21;;;;;;;;;;;24.60;50.40;;;;;;5031317;28;19959;-77
2022/07/06 13:23:46;;;;;;;;;;;26.20;50.70;;;;;;5031423;28;19920;-77
2022/07/06 13:26:13;;;;;;;;;;;26.60;45.50;;;;;;5035237;28;19913;-77
2022/07/06 13:28:38;;;;;;;;;;;25.90;47.80;;;;;;5023985;28;19955;-76
2022/07/06 13:31:03;;;;;;;;;;;25.30;46.20;;;;;;5031041;28;20387;-76
2022/07/06 13:33:29;;;;;;;;;;;24.60;48.00;;;;;;5011640;28;19909;-76
2022/07/06 13:35:54;;;;;;;;;;;24.10;50.20;;;;;;5025061;28;19909;-75
2022/07/06 13:38:20;;;;;;;;;;;23.80;48.90;;;;;;5038640;28;19915;-76
2022/07/06 13:40:45;;;;;;;;;;;23.70;48.70;;;;;;5026766;28;19916;-76
2022/07/06 13:43:11;;;;;;;;;;;23.10;49.40;;;;;;5028658;28;20268;-75
2022/07/06 13:45:37;;;;;;;;;;;23.10;50.10;;;;;;5025406;28;19913;-75
2022/07/06 13:48:02;;;;;;;;;;;23.10;50.00;;;;;;5037971;28;19909;-76
2022/07/06 13:50:32;;;;;;;;;;;23.00;50.40;;;;;;5023823;28;19917;-76
2022/07/06 13:52:57;;;;;;;;;;;24.00;50.10;;;;;;5034285;28;20327;-75
2022/07/06 13:55:23;;;;;;;;;;;26.00;45.50;;;;;;5037066;28;19913;-76
2022/07/06 13:57:48;;;;;;;;;;;26.40;43.80;;;;;;5042727;28;19913;-75
2022/07/06 14:00:14;;;;;;;;;;;26.20;44.40;;;;;;5046189;28;19909;-75
2022/07/06 14:02:39;;;;;;;;;;;26.30;44.90;;;;;;5031883;28;19925;-76
2022/07/06 14:05:05;;;;;;;;;;;26.70;42.00;;;;;;5032783;28;19924;-76
2022/07/06 14:07:30;;;;;;;;;;;27.20;42.20;;;;;;5034414;28;19908;-76
2022/07/06 14:10:23;;;;;;;;;;;26.40;42.60;;;;;;5032835;28;19987;-76
2022/07/06 14:12:48;;;;;;;;;;;26.00;42.70;;;;;;5037668;28;20205;-77
2022/07/06 14:15:13;;;;;;;;;;;24.90;44.80;;;;;;5040574;28;19952;-76
2022/07/06 14:17:39;;;;;;;;;;;25.20;45.40;;;;;;5040155;28;19912;-76